createdAt,value
2023-02-24T00:01:37.718Z,23.73
2023-02-24T00:04:08.357Z,23.63
2023-02-24T00:06:38.779Z,22.63
2023-02-24T00:09:09.750Z,23.53
2023-02-24T00:11:40.674Z,24.43
2023-02-24T00:14:10.049Z,23.30
2023-02-24T00:16:38.620Z,22.90
2023-02-24T00:19:08.157Z,23.30
2023-02-24T00:21:36.798Z,23.57
2023-02-24T00:24:04.896Z,24.30
2023-02-24T00:26:32.862Z,22.60
2023-02-24T00:29:04.975Z,22.50
2023-02-24T00:31:33.232Z,23.17
2023-02-24T00:34:02.704Z,23.43
2023-02-24T00:36:33.839Z,24.17
2023-02-24T00:39:09.212Z,24.53
2023-02-24T00:41:38.490Z,22.70
2023-02-24T00:44:09.937Z,23.23
2023-02-24T00:46:41.325Z,23.67
2023-02-24T00:49:17.000Z,23.37
2023-02-24T00:51:47.225Z,23.33
2023-02-24T00:54:16.142Z,23.77
2023-02-24T00:56:45.215Z,24.17
2023-02-24T00:59:16.018Z,24.40
2023-02-24T01:01:45.187Z,23.87
2023-02-24T01:04:14.612Z,24.83
2023-02-24T01:06:47.410Z,24.73
2023-02-24T01:09:17.826Z,23.97
2023-02-24T01:12:04.497Z,23.70
2023-02-24T01:14:36.131Z,23.23
2023-02-24T01:17:05.334Z,24.37
2023-02-24T01:19:34.446Z,25.57
2023-02-24T01:22:04.357Z,23.67
2023-02-24T01:24:34.311Z,24.47
2023-02-24T01:27:02.941Z,23.53
2023-02-24T01:29:30.940Z,22.70
2023-02-24T01:32:00.450Z,25.07
2023-02-24T01:34:29.118Z,23.13
2023-02-24T01:36:59.076Z,23.97
2023-02-24T01:39:26.986Z,24.37
2023-02-24T01:41:55.279Z,23.57
2023-02-24T01:45:12.707Z,24.90
2023-02-24T01:47:43.503Z,23.13
2023-02-24T01:50:15.969Z,23.60
2023-02-24T01:52:47.425Z,23.40
2023-02-24T01:55:22.102Z,23.97
2023-02-24T01:57:53.653Z,24.03
2023-02-24T02:00:38.325Z,25.10
2023-02-24T02:03:24.292Z,24.93
2023-02-24T02:05:54.267Z,24.00
2023-02-24T02:08:24.439Z,24.33
2023-02-24T02:10:58.695Z,23.83
2023-02-24T02:13:29.255Z,24.67
2023-02-24T02:16:22.208Z,24.30
2023-02-24T02:19:00.712Z,25.00
2023-02-24T02:21:56.671Z,24.47
2023-02-24T02:24:34.108Z,23.37
2023-02-24T02:27:39.945Z,24.50
2023-02-24T02:30:46.389Z,23.90
2023-02-24T02:33:56.128Z,22.77
2023-02-24T02:36:31.289Z,24.30
2023-02-24T02:39:08.095Z,24.10
2023-02-24T02:41:47.797Z,25.40
2023-02-24T02:44:21.761Z,24.27
2023-02-24T02:46:54.305Z,25.67
2023-02-24T02:49:30.632Z,24.63
2023-02-24T02:52:05.957Z,26.87
2023-02-24T02:54:40.332Z,26.43
2023-02-24T02:57:12.663Z,25.87
2023-02-24T02:59:49.254Z,27.30
2023-02-24T03:02:21.065Z,27.80
2023-02-24T03:04:53.612Z,27.93
2023-02-24T03:07:30.867Z,28.33
2023-02-24T03:10:02.060Z,28.87
2023-02-24T03:12:32.985Z,29.23
2023-02-24T03:15:04.608Z,27.80
2023-02-24T03:17:37.000Z,29.23
2023-02-24T03:20:15.857Z,30.27
2023-02-24T03:22:50.256Z,30.10
2023-02-24T03:25:24.128Z,29.90
2023-02-24T03:27:57.029Z,30.83
2023-02-24T03:30:29.945Z,30.13
2023-02-24T03:33:03.445Z,31.47
2023-02-24T03:35:37.180Z,31.67
2023-02-24T03:38:07.127Z,32.43
2023-02-24T03:40:36.043Z,31.30
2023-02-24T03:43:09.984Z,32.40
2023-02-24T03:45:40.664Z,33.03
2023-02-24T03:48:11.866Z,33.10
2023-02-24T03:50:42.742Z,33.33
2023-02-24T03:53:32.886Z,34.93
2023-02-24T03:56:10.899Z,34.87
2023-02-24T03:58:55.407Z,35.60
2023-02-24T04:01:34.782Z,36.50
2023-02-24T04:04:10.463Z,36.27
2023-02-24T04:06:56.424Z,37.17
2023-02-24T04:09:34.116Z,34.77
2023-02-24T04:12:17.164Z,39.27
2023-02-24T04:14:51.263Z,42.90
2023-02-24T04:17:23.504Z,41.23
2023-02-24T04:19:57.360Z,41.77
2023-02-24T04:22:27.492Z,41.10
2023-02-24T04:25:00.688Z,39.17
2023-02-24T04:27:29.709Z,39.37
2023-02-24T04:30:11.733Z,39.67
2023-02-24T04:32:42.757Z,41.33
2023-02-24T04:35:14.384Z,42.53
2023-02-24T04:37:45.980Z,40.60
2023-02-24T04:40:18.326Z,41.13
2023-02-24T04:42:49.805Z,40.70
2023-02-24T04:45:19.391Z,42.17
2023-02-24T04:47:49.505Z,41.40
2023-02-24T04:50:23.753Z,41.80
2023-02-24T04:52:53.327Z,44.97
2023-02-24T04:55:24.512Z,44.93
2023-02-24T04:57:54.495Z,45.77
2023-02-24T05:00:26.381Z,45.77
2023-02-24T05:02:55.980Z,45.73
2023-02-24T05:05:27.226Z,45.20
2023-02-24T05:07:56.033Z,45.83
2023-02-24T05:10:27.958Z,44.93
2023-02-24T05:12:58.082Z,44.00
2023-02-24T05:15:31.042Z,43.80
2023-02-24T05:18:00.770Z,46.10
2023-02-24T05:20:47.062Z,46.13
2023-02-24T05:23:16.923Z,44.57
2023-02-24T05:25:46.402Z,43.67
2023-02-24T05:28:14.366Z,45.30
2023-02-24T05:30:42.341Z,47.60
2023-02-24T05:33:10.622Z,45.50
2023-02-24T05:35:39.458Z,47.43
2023-02-24T05:38:08.245Z,44.37
2023-02-24T05:40:36.365Z,46.20
2023-02-24T05:43:05.759Z,45.40
2023-02-24T05:45:34.508Z,45.80
2023-02-24T05:48:05.771Z,45.60
2023-02-24T05:50:33.656Z,46.63
2023-02-24T05:53:03.309Z,45.23
2023-02-24T05:55:31.868Z,44.20
2023-02-24T05:58:00.281Z,46.97
2023-02-24T06:00:29.761Z,45.27
2023-02-24T06:03:08.301Z,45.33
2023-02-24T06:05:39.577Z,43.30
2023-02-24T06:08:11.750Z,45.63
2023-02-24T06:10:41.307Z,44.53
2023-02-24T06:13:10.370Z,45.70
2023-02-24T06:15:41.687Z,44.13
2023-02-24T06:18:11.593Z,42.07
2023-02-24T06:20:40.258Z,44.83
2023-02-24T06:23:08.753Z,42.17
2023-02-24T06:25:38.598Z,43.00
2023-02-24T06:28:06.667Z,43.07
2023-02-24T06:30:35.174Z,43.37
2023-02-24T06:33:05.845Z,43.30
2023-02-24T06:35:33.889Z,42.43
2023-02-24T06:38:01.977Z,41.57
2023-02-24T06:40:31.267Z,41.00
2023-02-24T06:42:59.212Z,41.37
2023-02-24T06:45:27.238Z,39.13
2023-02-24T06:47:55.178Z,40.53
2023-02-24T06:50:24.665Z,40.63
2023-02-24T06:52:58.429Z,40.47
2023-02-24T06:55:26.470Z,39.50
2023-02-24T06:57:57.283Z,40.93
2023-02-24T07:00:36.893Z,40.10
2023-02-24T07:03:14.805Z,40.53
2023-02-24T07:05:50.559Z,40.87
2023-02-24T07:08:23.782Z,42.83
2023-02-24T07:10:56.144Z,41.63
2023-02-24T07:13:25.322Z,45.23
2023-02-24T07:15:53.348Z,43.17
2023-02-24T07:18:21.369Z,41.30
2023-02-24T07:20:50.696Z,42.43
2023-02-24T07:23:18.702Z,42.20
2023-02-24T07:25:47.168Z,41.73
2023-02-24T07:28:15.145Z,41.13
2023-02-24T07:30:43.680Z,41.80
2023-02-24T07:33:12.010Z,41.40
2023-02-24T07:35:42.366Z,42.50
2023-02-24T07:38:17.175Z,41.43
2023-02-24T07:40:46.462Z,41.90
2023-02-24T07:43:16.200Z,43.97
2023-02-24T07:45:48.058Z,40.40
2023-02-24T07:48:16.000Z,41.63
2023-02-24T07:50:43.913Z,40.50
2023-02-24T07:53:13.584Z,39.33
2023-02-24T07:55:41.720Z,42.77
2023-02-24T07:58:10.668Z,39.87
2023-02-24T08:00:58.610Z,39.27
2023-02-24T08:03:29.975Z,39.00
2023-02-24T08:06:12.838Z,40.17
2023-02-24T08:08:57.818Z,40.67
2023-02-24T08:11:27.843Z,40.23
2023-02-24T08:13:59.264Z,39.50
2023-02-24T08:16:39.337Z,38.60
2023-02-24T08:19:07.621Z,38.30
2023-02-24T08:21:38.251Z,39.43
2023-02-24T08:24:09.261Z,39.40
2023-02-24T08:26:44.712Z,39.13
2023-02-24T08:29:13.331Z,38.23
2023-02-24T08:31:43.195Z,37.30
2023-02-24T08:34:16.074Z,38.87
2023-02-24T08:36:48.365Z,36.83
2023-02-24T08:39:19.258Z,36.33
2023-02-24T08:41:51.320Z,37.70
2023-02-24T08:44:20.409Z,37.20
2023-02-24T08:46:50.302Z,38.20
2023-02-24T08:49:19.128Z,37.07
2023-02-24T08:51:49.286Z,36.20
2023-02-24T08:54:26.946Z,35.50
2023-02-24T08:56:56.947Z,35.10
2023-02-24T08:59:38.853Z,38.33
2023-02-24T09:02:18.325Z,35.77
2023-02-24T09:04:47.425Z,36.20
2023-02-24T09:07:17.452Z,35.97
2023-02-24T09:09:46.865Z,36.87
2023-02-24T09:12:21.956Z,34.97
2023-02-24T09:14:51.112Z,34.30
2023-02-24T09:17:30.823Z,35.47
2023-02-24T09:20:16.103Z,35.13
2023-02-24T09:22:57.234Z,35.73
2023-02-24T09:25:40.601Z,36.20
2023-02-24T09:28:11.056Z,34.33
2023-02-24T09:30:51.126Z,34.83
2023-02-24T09:33:22.440Z,35.17
2023-02-24T09:35:54.113Z,35.07
2023-02-24T09:38:46.030Z,32.43
2023-02-24T09:41:31.478Z,32.50
2023-02-24T09:44:03.823Z,33.50
2023-02-24T09:46:43.148Z,34.47
2023-02-24T09:49:18.401Z,32.93
2023-02-24T09:51:53.385Z,32.03
2023-02-24T09:54:24.646Z,32.37
2023-02-24T09:57:08.313Z,35.13
2023-02-24T10:00:01.095Z,32.87
2023-02-24T10:02:47.535Z,33.60
2023-02-24T10:05:27.315Z,32.13
2023-02-24T10:07:57.122Z,30.87
2023-02-24T10:10:29.085Z,29.53
2023-02-24T10:13:09.633Z,27.60
2023-02-24T10:15:59.138Z,27.93
2023-02-24T10:18:32.938Z,26.87
2023-02-24T10:21:15.461Z,26.60
2023-02-24T10:24:09.780Z,24.33
2023-02-24T10:26:59.551Z,20.80
2023-02-24T10:29:50.829Z,20.43
2023-02-24T10:32:23.942Z,19.37
2023-02-24T10:35:20.230Z,19.00
2023-02-24T10:37:49.164Z,19.70
2023-02-24T10:40:26.476Z,19.27
2023-02-24T10:43:10.398Z,19.23
2023-02-24T10:45:45.147Z,20.30
2023-02-24T10:48:40.348Z,19.80
2023-02-24T10:51:19.637Z,18.43
2023-02-24T10:54:09.545Z,19.30
2023-02-24T10:56:55.247Z,17.80
2023-02-24T10:59:37.291Z,18.43
2023-02-24T11:02:29.418Z,18.10
2023-02-24T11:05:16.848Z,19.67
2023-02-24T11:07:53.570Z,18.57
2023-02-24T11:10:33.143Z,20.67
2023-02-24T11:13:20.487Z,19.30
2023-02-24T11:16:09.166Z,17.43
2023-02-24T11:18:40.627Z,16.73
2023-02-24T11:21:12.059Z,17.60
2023-02-24T11:23:43.349Z,16.63
2023-02-24T11:26:17.673Z,16.63
2023-02-24T11:29:00.948Z,16.67
2023-02-24T11:31:51.938Z,18.67
2023-02-24T11:34:28.961Z,17.23
2023-02-24T11:37:09.128Z,16.87
2023-02-24T11:39:53.543Z,15.53
2023-02-24T11:42:27.096Z,15.53
2023-02-24T11:45:00.914Z,16.40
2023-02-24T11:47:36.797Z,17.43
2023-02-24T11:50:18.886Z,15.60
2023-02-24T11:52:50.543Z,14.60
2023-02-24T11:55:28.207Z,14.07
2023-02-24T11:57:59.270Z,14.27
2023-02-24T12:00:32.177Z,14.37
2023-02-24T12:03:04.813Z,14.97
2023-02-24T12:05:37.779Z,14.87
2023-02-24T12:08:16.163Z,14.57
2023-02-24T12:10:50.476Z,14.30
2023-02-24T12:13:24.701Z,15.27
2023-02-24T12:15:59.788Z,13.63
2023-02-24T12:18:34.123Z,15.60
2023-02-24T12:21:07.715Z,14.40
2023-02-24T12:23:39.300Z,15.10
2023-02-24T12:26:19.317Z,15.63
2023-02-24T12:29:16.137Z,14.27
2023-02-24T12:31:57.330Z,17.03
2023-02-24T12:34:38.384Z,16.83
2023-02-24T12:37:25.559Z,16.27
2023-02-24T12:40:04.221Z,17.43
2023-02-24T12:42:39.954Z,16.27
2023-02-24T12:45:16.953Z,16.93
2023-02-24T12:47:57.287Z,15.43
2023-02-24T12:50:32.174Z,15.83
2023-02-24T12:53:07.840Z,14.53
2023-02-24T12:55:46.904Z,14.53
2023-02-24T12:58:18.904Z,14.10
2023-02-24T13:01:02.600Z,14.27
2023-02-24T13:03:45.674Z,14.77
2023-02-24T13:06:19.758Z,13.80
2023-02-24T13:08:58.368Z,13.03
2023-02-24T13:11:39.544Z,12.20
2023-02-24T13:14:18.001Z,12.90
2023-02-24T13:16:46.143Z,12.50
2023-02-24T13:19:22.688Z,11.23
2023-02-24T13:21:59.649Z,10.30
2023-02-24T13:24:29.309Z,11.33
2023-02-24T13:27:07.471Z,10.73
2023-02-24T13:29:45.209Z,11.33
2023-02-24T13:32:28.806Z,10.73
2023-02-24T13:34:58.174Z,11.43
2023-02-24T13:37:31.560Z,11.40
2023-02-24T13:40:00.941Z,11.13
2023-02-24T13:42:31.294Z,11.07
2023-02-24T13:45:18.254Z,11.80
2023-02-24T13:48:15.986Z,12.03
2023-02-24T13:51:01.494Z,11.20
2023-02-24T13:53:41.668Z,11.50
2023-02-24T13:56:26.574Z,11.57
2023-02-24T13:59:05.053Z,10.43
2023-02-24T14:01:45.559Z,11.57
2023-02-24T14:04:18.085Z,10.53
2023-02-24T14:06:53.633Z,11.63
2023-02-24T14:09:26.560Z,10.03
2023-02-24T14:12:01.886Z,11.20
2023-02-24T14:14:30.756Z,10.90
2023-02-24T14:16:58.828Z,10.57
2023-02-24T14:19:27.186Z,9.57
2023-02-24T14:21:56.908Z,9.50
2023-02-24T14:24:25.192Z,10.33
2023-02-24T14:26:55.548Z,9.60
2023-02-24T14:29:31.760Z,9.33
2023-02-24T14:32:00.329Z,10.73
2023-02-24T14:34:32.270Z,10.33
2023-02-24T14:37:03.362Z,11.17
2023-02-24T14:39:34.136Z,10.13
2023-02-24T14:42:12.378Z,10.30
2023-02-24T14:44:44.968Z,10.97
2023-02-24T14:47:15.282Z,10.80
2023-02-24T14:49:52.420Z,10.63
2023-02-24T14:52:31.556Z,11.03
2023-02-24T14:55:03.128Z,11.13
2023-02-24T14:57:34.627Z,11.27
2023-02-24T15:00:11.815Z,11.67
2023-02-24T15:02:44.783Z,11.50
2023-02-24T15:05:12.960Z,11.40
2023-02-24T15:07:44.685Z,11.43
2023-02-24T15:10:22.189Z,12.57
2023-02-24T15:12:53.228Z,11.93
2023-02-24T15:15:26.935Z,12.27
2023-02-24T15:17:57.697Z,13.77
2023-02-24T15:20:32.222Z,13.07
2023-02-24T15:23:00.573Z,13.77
2023-02-24T15:25:42.005Z,16.00
2023-02-24T15:28:24.509Z,14.93
2023-02-24T15:31:04.759Z,15.37
2023-02-24T15:33:38.368Z,14.43
2023-02-24T15:36:17.221Z,12.03
2023-02-24T15:38:46.290Z,11.80
2023-02-24T15:41:15.233Z,11.83
2023-02-24T15:43:48.996Z,11.80
2023-02-24T15:46:25.251Z,11.37
2023-02-24T15:48:55.485Z,10.80
2023-02-24T15:51:32.396Z,10.37
2023-02-24T15:54:01.518Z,11.37
2023-02-24T15:56:29.844Z,11.57
2023-02-24T15:58:59.847Z,10.33
2023-02-24T16:01:29.867Z,9.33
2023-02-24T16:03:58.149Z,8.50
2023-02-24T16:06:28.384Z,9.30
2023-02-24T16:08:57.939Z,9.37
2023-02-24T16:11:29.732Z,8.17
2023-02-24T16:13:59.642Z,9.50
2023-02-24T16:16:29.529Z,11.23
2023-02-24T16:18:57.903Z,10.50
2023-02-24T16:21:25.906Z,10.60
2023-02-24T16:23:53.909Z,10.83
2023-02-24T16:26:24.057Z,10.37
2023-02-24T16:28:55.219Z,9.33
2023-02-24T16:31:23.971Z,9.90
2023-02-24T16:33:55.687Z,9.67
2023-02-24T16:36:25.501Z,9.97
2023-02-24T16:38:53.760Z,10.03
2023-02-24T16:41:21.941Z,9.53
2023-02-24T16:43:55.156Z,9.43
2023-02-24T16:46:24.993Z,10.03
2023-02-24T16:48:55.629Z,9.40
2023-02-24T16:51:31.491Z,9.80
2023-02-24T16:54:02.087Z,9.43
2023-02-24T16:56:31.448Z,8.57
2023-02-24T16:59:00.626Z,8.57
2023-02-24T17:01:29.766Z,8.53
2023-02-24T17:03:59.500Z,8.17
2023-02-24T17:06:27.994Z,8.73
2023-02-24T17:08:56.368Z,8.37
2023-02-24T17:11:30.393Z,8.77
2023-02-24T17:13:58.325Z,7.33
2023-02-24T17:16:26.555Z,8.20
2023-02-24T17:18:54.562Z,8.73
2023-02-24T17:21:24.766Z,8.83
2023-02-24T17:23:52.765Z,14.23
2023-02-24T17:26:21.063Z,12.90
2023-02-24T17:28:49.214Z,13.23
2023-02-24T17:31:17.301Z,15.30
2023-02-24T17:33:45.318Z,18.67
2023-02-24T17:36:13.237Z,23.63
2023-02-24T17:38:42.513Z,23.13
2023-02-24T17:41:10.772Z,22.13
2023-02-24T17:43:38.814Z,28.17
2023-02-24T17:46:07.492Z,22.97
2023-02-24T17:48:36.074Z,22.23
2023-02-24T17:51:04.096Z,17.73
2023-02-24T17:53:32.281Z,15.73
2023-02-24T17:56:06.490Z,15.43
2023-02-24T17:58:34.822Z,14.37
2023-02-24T18:01:03.455Z,11.70
2023-02-24T18:03:31.985Z,11.47
2023-02-24T18:06:01.558Z,10.93
2023-02-24T18:08:32.873Z,12.43
2023-02-24T18:11:01.413Z,11.50
2023-02-24T18:13:31.859Z,13.03
2023-02-24T18:16:00.517Z,12.63
2023-02-24T18:18:30.352Z,12.40
2023-02-24T18:21:02.679Z,13.30
2023-02-24T18:23:30.795Z,15.40
2023-02-24T18:26:02.084Z,15.97
2023-02-24T18:28:31.600Z,15.63
2023-02-24T18:31:00.578Z,15.23
2023-02-24T18:33:29.274Z,11.80
2023-02-24T18:36:00.687Z,12.07
2023-02-24T18:38:29.434Z,13.00
2023-02-24T18:41:01.547Z,21.27
2023-02-24T18:43:31.831Z,22.87
2023-02-24T18:46:00.763Z,24.67
2023-02-24T18:48:30.402Z,24.57
2023-02-24T18:50:59.540Z,24.50
2023-02-24T18:53:31.551Z,25.40
2023-02-24T18:56:01.421Z,23.87
2023-02-24T18:58:31.232Z,23.70
2023-02-24T19:00:59.220Z,24.73
2023-02-24T19:03:27.358Z,23.37
2023-02-24T19:05:55.314Z,23.97
2023-02-24T19:08:23.305Z,20.20
2023-02-24T19:10:51.617Z,16.47
2023-02-24T19:13:20.173Z,17.83
2023-02-24T19:15:49.481Z,17.27
2023-02-24T19:18:18.015Z,20.07
2023-02-24T19:20:45.989Z,20.67
2023-02-24T19:23:16.323Z,21.80
2023-02-24T19:25:44.400Z,19.07
2023-02-24T19:28:12.453Z,18.10
2023-02-24T19:30:41.003Z,19.47
2023-02-24T19:33:12.599Z,23.10
2023-02-24T19:35:42.306Z,24.00
2023-02-24T19:38:10.277Z,23.40
2023-02-24T19:40:38.385Z,24.07
2023-02-24T19:43:06.952Z,24.00
2023-02-24T19:45:35.237Z,24.60
2023-02-24T19:48:03.320Z,23.90
2023-02-24T19:50:32.893Z,24.70
2023-02-24T19:53:01.080Z,29.37
2023-02-24T19:55:29.449Z,28.63
2023-02-24T19:57:57.555Z,28.93
2023-02-24T20:00:25.682Z,25.50
2023-02-24T20:02:56.363Z,24.17
2023-02-24T20:05:24.830Z,23.13
2023-02-24T20:07:54.398Z,22.53
2023-02-24T20:10:23.649Z,22.47
2023-02-24T20:12:51.813Z,23.27
2023-02-24T20:15:20.028Z,23.57
2023-02-24T20:17:49.900Z,23.53
2023-02-24T20:20:18.120Z,23.90
2023-02-24T20:22:46.156Z,22.60
2023-02-24T20:25:15.751Z,23.37
2023-02-24T20:27:44.009Z,22.70
2023-02-24T20:30:13.465Z,22.63
2023-02-24T20:32:51.656Z,21.93
2023-02-24T20:35:21.013Z,22.63
2023-02-24T20:37:49.012Z,21.80
2023-02-24T20:40:18.628Z,20.27
2023-02-24T20:42:46.615Z,22.00
2023-02-24T20:45:14.589Z,21.07
2023-02-24T20:47:42.647Z,21.20
2023-02-24T20:50:11.100Z,21.07
2023-02-24T20:52:40.102Z,22.93
2023-02-24T20:55:08.851Z,25.60
2023-02-24T20:57:38.120Z,29.00
2023-02-24T21:00:08.166Z,31.10
2023-02-24T21:02:36.742Z,30.97
2023-02-24T21:05:05.055Z,28.50
2023-02-24T21:07:33.008Z,28.60
2023-02-24T21:10:00.975Z,32.67
2023-02-24T21:12:28.949Z,38.47
2023-02-24T21:14:58.258Z,39.10
2023-02-24T21:17:26.232Z,44.80
2023-02-24T21:19:54.202Z,40.67
2023-02-24T21:22:22.171Z,34.07
2023-02-24T21:24:50.222Z,31.43
2023-02-24T21:27:18.146Z,28.97
2023-02-24T21:29:48.895Z,36.67
2023-02-24T21:32:18.592Z,65.57
2023-02-24T21:34:46.786Z,76.97
2023-02-24T21:37:14.872Z,78.17
2023-02-24T21:39:42.919Z,69.23
2023-02-24T21:42:12.073Z,56.40
2023-02-24T21:44:44.391Z,56.93
2023-02-24T21:47:12.698Z,48.63
2023-02-24T21:49:42.055Z,42.67
2023-02-24T21:52:12.137Z,37.80
2023-02-24T21:54:40.272Z,33.03
2023-02-24T21:57:08.937Z,27.73
2023-02-24T21:59:37.178Z,24.67
2023-02-24T22:02:05.167Z,25.13
2023-02-24T22:04:33.720Z,24.27
2023-02-24T22:07:03.130Z,24.27
2023-02-24T22:09:31.026Z,25.23
2023-02-24T22:11:58.926Z,25.43
2023-02-24T22:14:26.856Z,27.63
2023-02-24T22:16:54.843Z,32.30
2023-02-24T22:19:22.761Z,29.33
2023-02-24T22:21:50.814Z,25.80
2023-02-24T22:24:20.284Z,26.70
2023-02-24T22:26:48.198Z,32.80
2023-02-24T22:29:16.109Z,28.07
2023-02-24T22:31:47.626Z,34.67
2023-02-24T22:34:17.150Z,38.17
2023-02-24T22:36:45.098Z,41.30
2023-02-24T22:39:16.528Z,45.27
2023-02-24T22:41:47.415Z,34.97
2023-02-24T22:44:19.091Z,25.47
2023-02-24T22:46:47.227Z,25.53
2023-02-24T22:49:17.536Z,25.73
2023-02-24T22:51:45.663Z,25.70
2023-02-24T22:54:13.596Z,20.97
2023-02-24T22:56:42.275Z,21.90
2023-02-24T22:59:12.611Z,18.53
2023-02-24T23:01:42.586Z,17.40
2023-02-24T23:04:15.374Z,18.83
2023-02-24T23:06:44.494Z,19.70
2023-02-24T23:09:13.223Z,22.10
2023-02-24T23:11:42.392Z,23.93
2023-02-24T23:14:14.748Z,22.93
2023-02-24T23:16:44.434Z,25.53
2023-02-24T23:19:16.050Z,25.50
2023-02-24T23:21:46.585Z,23.10
2023-02-24T23:24:16.334Z,21.57
2023-02-24T23:26:46.036Z,21.93
2023-02-24T23:29:18.811Z,24.13
2023-02-24T23:31:47.572Z,22.33
2023-02-24T23:34:16.324Z,21.67
2023-02-24T23:36:45.926Z,20.10
2023-02-24T23:39:17.319Z,22.80
2023-02-24T23:41:45.445Z,26.20
2023-02-24T23:44:14.775Z,24.33
2023-02-24T23:46:42.776Z,22.53
2023-02-24T23:49:10.780Z,21.67
2023-02-24T23:51:48.119Z,21.47
2023-02-24T23:54:16.982Z,21.43
2023-02-24T23:56:45.135Z,22.37
2023-02-24T23:59:13.108Z,21.60
